Abbotsford, British Columbia

12:23 AM PDT on July 28, 2015 (GMT -0700)
Hwy 1 @ McCallum | | Change Station
CLOSE
Current Station
Personal Weather Station
Location: Abbotsford, BC
Elevation: 190 ft
Nearby Weather Stations

Elev 190 ft 49.03 °N, 122.30 °W | Updated 9 seconds ago

Clear
Clear
57.4 °F
Feels Like 57.4 °F
N
0.0
Wind Variable Wind from SSW
Gusts 0.0 mph

Today
High -- | Low -- °F
--% Chance of Precip.
Yesterday
High -- | Low -- °F
Precip. -- in
5:36 AM 8:54 PM
Waxing Gibbous, 87% visible
Pressure 30.23 in
Visibility 10.0 miles
Clouds Few 10000 ft
Dew Point 53 °F
Humidity 84%
Rainfall 0.00 in
Snow Depth Not available.
UV 0.0 out of 12
Pollen Not available.
Air Quality Not available.
Flu Activity Not available.
METAR CYXX 280700Z 24002KT 10SM FEW100 15/11 A3023 RMK AC1 SLP235

More Conditions Fewer Conditions

Pressure 30.23 in
Visibility 10.0 miles
Clouds Few 10000 ft
Dew Point 53 °F
Humidity 84%
Rainfall 0.00 in
Snow Depth Not available.
UV 0.0 out of 12
Pollen Not available.
Air Quality Not available.
Flu Activity Not available.
METAR CYXX 280700Z 24002KT 10SM FEW100 15/11 A3023 RMK AC1 SLP235

More Conditions Fewer Conditions

10-Day Weather Forecast

×

Almanac

Astronomy

Jul. 28, 2015 Rise Set
Actual Time
Civil Twilight
Nautical Twilight
Astronomical Twilight
Moon
Length of Visible Light
Length of Day
Tomorrow will be .
, % of the Moon is Illuminated

Today's Extremes

Country Highs Country Lows

Community

WunderPhotos

Upload Photos

1,841,796 photos uploaded!

WunderBlogs® & News

Nearby

Air Quality

  Air Quality AQ Index Pollutant
Not available.

Snow Depth

Station Depth Elevation

Earthquake Activity

City Distance Mag. Time & Date
Minimum magnitude displayed is 2.5.

Coastal Water Temperatures

Place Temperature

Stations

Nearby Weather Stations

Station Location Temp. Windchill Dew Point Humidity Wind Precip. Elev Updated Type